createdAt,value
2018-10-19T00:02:24.983Z,11.40
2018-10-19T00:04:53.320Z,11.40
2018-10-19T00:07:22.673Z,11.50
2018-10-19T00:09:51.033Z,11.40
2018-10-19T00:12:19.404Z,11.40
2018-10-19T00:14:47.728Z,11.40
2018-10-19T00:17:16.141Z,11.40
2018-10-19T00:19:44.388Z,11.40
2018-10-19T00:22:22.549Z,11.40
2018-10-19T00:24:50.843Z,11.30
2018-10-19T00:27:19.204Z,11.30
2018-10-19T00:29:47.508Z,11.30
2018-10-19T00:32:15.851Z,11.20
2018-10-19T00:34:44.204Z,11.20
2018-10-19T00:37:12.520Z,11.20
2018-10-19T00:39:43.972Z,11.20
2018-10-19T00:42:12.298Z,11.20
2018-10-19T00:44:40.623Z,11.20
2018-10-19T00:47:09.029Z,11.10
2018-10-19T00:49:37.370Z,11.10
2018-10-19T00:52:06.083Z,11.00
2018-10-19T00:54:34.541Z,11.00
2018-10-19T00:57:02.865Z,11.00
2018-10-19T00:59:31.390Z,11.00
2018-10-19T01:01:59.734Z,11.00
2018-10-19T01:04:28.034Z,11.00
2018-10-19T01:06:56.319Z,10.90
2018-10-19T01:09:24.590Z,10.90
2018-10-19T01:11:52.880Z,10.80
2018-10-19T01:14:21.261Z,10.80
2018-10-19T01:16:49.565Z,10.80
2018-10-19T01:19:17.926Z,10.80
2018-10-19T01:21:46.250Z,10.80
2018-10-19T01:24:14.600Z,10.80
2018-10-19T01:26:42.958Z,10.80
2018-10-19T01:29:11.312Z,10.80
2018-10-19T01:31:40.522Z,10.80
2018-10-19T01:34:08.885Z,10.80
2018-10-19T01:36:41.946Z,10.70
2018-10-19T01:39:11.182Z,10.60
2018-10-19T01:41:39.650Z,10.60
2018-10-19T01:44:11.985Z,10.60
2018-10-19T01:46:45.679Z,10.50
2018-10-19T01:49:14.026Z,10.60
2018-10-19T01:51:42.570Z,10.50
2018-10-19T01:54:10.910Z,10.50
2018-10-19T01:56:39.252Z,10.40
2018-10-19T01:59:07.689Z,10.40
2018-10-19T02:01:36.046Z,10.40
2018-10-19T02:04:04.442Z,10.40
2018-10-19T02:06:40.847Z,10.40
2018-10-19T02:09:09.216Z,10.40
2018-10-19T02:11:37.433Z,10.40
2018-10-19T02:14:05.822Z,10.40
2018-10-19T02:16:34.239Z,10.40
2018-10-19T02:19:02.568Z,10.30
2018-10-19T02:21:34.626Z,10.20
2018-10-19T02:24:02.977Z,10.10
2018-10-19T02:26:31.246Z,10.10
2018-10-19T02:28:59.547Z,10.10
2018-10-19T02:31:27.892Z,10.10
2018-10-19T02:33:56.175Z,10.10
2018-10-19T02:36:24.476Z,10.10
2018-10-19T02:38:52.764Z,10.10
2018-10-19T02:41:21.091Z,10.00
2018-10-19T02:43:49.390Z,9.90
2018-10-19T02:46:17.706Z,9.90
2018-10-19T02:48:46.050Z,9.90
2018-10-19T02:51:14.423Z,9.90
2018-10-19T02:53:42.640Z,9.80
2018-10-19T02:56:11.001Z,9.70
2018-10-19T02:58:39.286Z,9.80
2018-10-19T03:01:07.573Z,9.70
2018-10-19T03:03:35.859Z,9.70
2018-10-19T03:06:04.199Z,9.70
2018-10-19T03:08:32.524Z,9.70
2018-10-19T03:11:00.942Z,9.70
2018-10-19T03:13:29.218Z,9.60
2018-10-19T03:15:57.587Z,9.60
2018-10-19T03:18:25.901Z,9.50
2018-10-19T03:20:54.393Z,9.60
2018-10-19T03:23:22.685Z,9.50
2018-10-19T03:25:51.011Z,9.40
2018-10-19T03:28:21.362Z,9.40
2018-10-19T03:30:49.758Z,9.50
2018-10-19T03:33:18.103Z,9.40
2018-10-19T03:35:46.310Z,9.40
2018-10-19T03:38:14.594Z,9.40
2018-10-19T03:40:42.885Z,9.50
2018-10-19T03:43:11.236Z,9.40
2018-10-19T03:45:39.541Z,9.40
2018-10-19T03:48:07.831Z,9.30
2018-10-19T03:50:36.150Z,9.10
2018-10-19T03:53:05.059Z,9.10
2018-10-19T03:55:33.462Z,9.10
2018-10-19T03:58:01.713Z,9.00
2018-10-19T04:00:29.998Z,9.00
2018-10-19T04:03:08.780Z,9.00
2018-10-19T04:05:37.056Z,8.90
2018-10-19T04:08:05.513Z,8.70
2018-10-19T04:10:33.822Z,8.70
2018-10-19T04:13:02.089Z,8.70
2018-10-19T04:15:30.407Z,8.70
2018-10-19T04:17:58.741Z,8.70
2018-10-19T04:20:30.920Z,8.70
2018-10-19T04:23:03.573Z,8.70
2018-10-19T04:25:31.837Z,8.70
2018-10-19T04:28:00.111Z,8.80
2018-10-19T04:30:28.436Z,8.80
2018-10-19T04:32:56.762Z,8.80
2018-10-19T04:35:25.139Z,8.80
2018-10-19T04:37:53.470Z,8.70
2018-10-19T04:40:22.992Z,8.70
2018-10-19T04:42:51.388Z,8.70
2018-10-19T04:45:20.048Z,8.70
2018-10-19T04:47:48.371Z,8.60
2018-10-19T04:50:16.693Z,8.60
2018-10-19T04:52:44.992Z,8.60
2018-10-19T04:55:19.373Z,8.50
2018-10-19T04:57:47.782Z,8.40
2018-10-19T05:00:17.886Z,8.40
2018-10-19T05:02:46.337Z,8.40
2018-10-19T05:05:14.649Z,8.40
2018-10-19T05:07:42.868Z,8.40
2018-10-19T05:10:11.405Z,8.40
2018-10-19T05:12:39.783Z,8.50
2018-10-19T05:15:09.214Z,8.50
2018-10-19T05:17:37.489Z,8.40
2018-10-19T05:20:07.600Z,8.40
2018-10-19T05:22:35.905Z,8.50
2018-10-19T05:25:05.097Z,8.50
2018-10-19T05:27:33.419Z,8.50
2018-10-19T05:30:01.710Z,8.50
2018-10-19T05:32:29.950Z,8.50
2018-10-19T05:34:58.338Z,8.60
2018-10-19T05:37:31.657Z,8.60
2018-10-19T05:40:00.488Z,8.60
2018-10-19T05:42:28.765Z,8.50
2018-10-19T05:44:57.071Z,8.50
2018-10-19T05:47:25.408Z,8.50
2018-10-19T05:49:54.082Z,8.50
2018-10-19T05:52:22.536Z,8.50
2018-10-19T05:54:50.891Z,8.40
2018-10-19T05:57:19.183Z,8.40
2018-10-19T05:59:47.518Z,8.40
2018-10-19T06:02:15.979Z,8.30
2018-10-19T06:04:44.286Z,8.30
2018-10-19T06:07:12.585Z,8.40
2018-10-19T06:09:40.932Z,8.40
2018-10-19T06:12:09.258Z,8.40
2018-10-19T06:14:37.621Z,8.50
2018-10-19T06:17:06.194Z,8.50
2018-10-19T06:19:34.423Z,8.50
2018-10-19T06:22:03.901Z,8.60
2018-10-19T06:24:32.243Z,8.60
2018-10-19T06:27:00.511Z,8.60
2018-10-19T06:29:28.827Z,8.60
2018-10-19T06:32:02.043Z,8.60
2018-10-19T06:34:33.289Z,8.70
2018-10-19T06:37:01.640Z,8.70
2018-10-19T06:39:29.896Z,8.70
2018-10-19T06:42:01.901Z,8.70
2018-10-19T06:44:30.247Z,8.80
2018-10-19T06:46:58.610Z,8.80
2018-10-19T06:49:26.787Z,8.80
2018-10-19T06:51:56.048Z,9.00
2018-10-19T06:54:24.316Z,9.00
2018-10-19T06:56:52.606Z,9.10
2018-10-19T06:59:20.991Z,9.20
2018-10-19T07:01:49.272Z,9.30
2018-10-19T07:04:17.591Z,9.40
2018-10-19T07:06:45.917Z,9.40
2018-10-19T07:09:14.222Z,9.50
2018-10-19T07:11:42.876Z,9.60
2018-10-19T07:14:11.273Z,9.70
2018-10-19T07:16:39.494Z,9.80
2018-10-19T07:19:07.865Z,9.90
2018-10-19T07:21:36.204Z,10.00
2018-10-19T07:24:04.683Z,10.10
2018-10-19T07:26:33.002Z,10.20
2018-10-19T07:29:01.379Z,10.20
2018-10-19T07:31:29.696Z,10.30
2018-10-19T07:33:58.010Z,10.40
2018-10-19T07:36:26.389Z,10.40
2018-10-19T07:38:54.629Z,10.50
2018-10-19T07:41:22.952Z,10.60
2018-10-19T07:43:51.290Z,10.70
2018-10-19T07:46:19.578Z,10.70
2018-10-19T07:48:47.859Z,10.80
2018-10-19T07:51:16.174Z,10.90
2018-10-19T07:53:44.474Z,11.00
2018-10-19T07:56:12.922Z,11.20
2018-10-19T07:58:41.202Z,11.30
2018-10-19T08:01:10.665Z,11.20
2018-10-19T08:03:39.910Z,11.30
2018-10-19T08:06:08.326Z,11.30
2018-10-19T08:08:38.675Z,11.30
2018-10-19T08:11:07.055Z,11.40
2018-10-19T08:13:35.351Z,11.60
2018-10-19T08:16:03.634Z,11.80
2018-10-19T08:18:31.966Z,11.80
2018-10-19T08:21:00.402Z,11.90
2018-10-19T08:23:28.719Z,11.90
2018-10-19T08:25:57.044Z,12.20
2018-10-19T08:28:25.301Z,12.20
2018-10-19T08:30:53.647Z,12.20
2018-10-19T08:33:22.005Z,12.20
2018-10-19T08:35:50.484Z,12.40
2018-10-19T08:38:18.809Z,12.50
2018-10-19T08:40:47.181Z,12.50
2018-10-19T08:43:15.592Z,12.50
2018-10-19T08:45:43.923Z,12.80
2018-10-19T08:48:12.265Z,13.00
2018-10-19T08:50:40.602Z,13.20
2018-10-19T08:53:08.996Z,13.40
2018-10-19T08:55:37.336Z,13.60
2018-10-19T08:58:05.794Z,13.80
2018-10-19T09:00:34.062Z,14.10
2018-10-19T09:03:03.112Z,14.20
2018-10-19T09:05:35.783Z,14.20
2018-10-19T09:08:04.168Z,14.30
2018-10-19T09:10:32.502Z,14.60
2018-10-19T09:13:00.835Z,14.80
2018-10-19T09:15:29.193Z,15.00
2018-10-19T09:17:57.523Z,15.10
2018-10-19T09:20:26.870Z,15.20
2018-10-19T09:22:55.226Z,15.30
2018-10-19T09:25:23.516Z,15.40
2018-10-19T09:27:51.892Z,15.40
2018-10-19T09:30:21.119Z,15.40
2018-10-19T09:32:49.426Z,15.70
2018-10-19T09:35:17.828Z,15.90
2018-10-19T09:37:46.027Z,16.10
2018-10-19T09:40:14.381Z,16.10
2018-10-19T09:42:42.612Z,16.20
2018-10-19T09:45:10.938Z,16.20
2018-10-19T09:47:39.350Z,16.40
2018-10-19T09:50:07.652Z,16.50
2018-10-19T09:52:35.932Z,16.60
2018-10-19T09:55:04.321Z,16.70
2018-10-19T09:57:36.489Z,17.00
2018-10-19T10:00:15.335Z,17.10
2018-10-19T10:02:43.791Z,17.20
2018-10-19T10:05:12.203Z,17.40
2018-10-19T10:07:40.582Z,17.50
2018-10-19T10:10:08.842Z,17.40
2018-10-19T10:12:37.207Z,17.20
2018-10-19T10:15:05.778Z,17.20
2018-10-19T10:17:34.078Z,17.20
2018-10-19T10:20:03.728Z,17.40
2018-10-19T10:22:32.017Z,17.50
2018-10-19T10:25:00.515Z,17.60
2018-10-19T10:27:28.621Z,17.60
2018-10-19T10:29:56.914Z,17.60
2018-10-19T10:32:25.245Z,17.70
2018-10-19T10:34:53.515Z,17.70
2018-10-19T10:37:21.790Z,17.90
2018-10-19T10:39:50.195Z,18.10
2018-10-19T10:42:18.511Z,18.30
2018-10-19T10:44:46.949Z,18.40
2018-10-19T10:47:16.176Z,18.40
2018-10-19T10:49:45.285Z,18.40
2018-10-19T10:52:13.653Z,18.40
2018-10-19T10:54:41.814Z,18.60
2018-10-19T10:57:10.065Z,18.70
2018-10-19T10:59:38.368Z,18.80
2018-10-19T11:02:06.725Z,18.90
2018-10-19T11:04:35.022Z,18.90
2018-10-19T11:07:03.412Z,19.10
2018-10-19T11:09:31.675Z,19.20
2018-10-19T11:11:59.967Z,19.30
2018-10-19T11:14:28.264Z,19.50
2018-10-19T11:16:56.575Z,19.70
2018-10-19T11:19:24.879Z,19.70
2018-10-19T11:21:53.132Z,19.70
2018-10-19T11:24:21.459Z,19.70
2018-10-19T11:26:49.885Z,19.60
2018-10-19T11:29:18.214Z,19.70
2018-10-19T11:31:46.602Z,19.50
2018-10-19T11:34:14.960Z,19.50
2018-10-19T11:36:43.250Z,19.60
2018-10-19T11:39:11.557Z,19.70
2018-10-19T11:41:40.216Z,19.60
2018-10-19T11:44:08.604Z,19.70
2018-10-19T11:46:36.944Z,19.50
2018-10-19T11:49:05.311Z,19.70
2018-10-19T11:51:33.718Z,19.80
2018-10-19T11:54:02.038Z,19.90
2018-10-19T11:56:30.338Z,19.90
2018-10-19T11:58:58.672Z,19.90
2018-10-19T12:01:26.992Z,19.90
2018-10-19T12:03:55.275Z,20.00
2018-10-19T12:06:23.616Z,20.00
2018-10-19T12:08:51.951Z,20.00
2018-10-19T12:11:20.288Z,20.00
2018-10-19T12:13:48.595Z,20.20
2018-10-19T12:16:16.976Z,20.20
2018-10-19T12:18:45.175Z,20.20
2018-10-19T12:21:13.551Z,20.10
2018-10-19T12:23:41.776Z,20.20
2018-10-19T12:26:10.272Z,20.10
2018-10-19T12:28:38.457Z,20.10
2018-10-19T12:31:06.842Z,20.20
2018-10-19T12:33:35.073Z,20.30
2018-10-19T12:36:03.458Z,20.20
2018-10-19T12:38:31.763Z,20.30
2018-10-19T12:41:00.131Z,20.30
2018-10-19T12:43:28.382Z,20.30
2018-10-19T12:46:41.027Z,20.60
2018-10-19T12:49:09.932Z,20.80
2018-10-19T12:51:38.537Z,21.00
2018-10-19T12:54:07.052Z,20.90
2018-10-19T12:56:35.342Z,20.90
2018-10-19T12:59:03.789Z,20.90
2018-10-19T13:01:32.573Z,21.00
2018-10-19T13:04:01.459Z,21.00
2018-10-19T13:06:29.770Z,21.20
2018-10-19T13:08:58.095Z,21.40
2018-10-19T13:11:26.828Z,21.50
2018-10-19T13:13:55.113Z,21.50
2018-10-19T13:16:23.654Z,21.50
2018-10-19T13:18:52.108Z,21.80
2018-10-19T13:21:20.546Z,21.90
2018-10-19T13:23:48.908Z,21.90
2018-10-19T13:26:17.277Z,21.90
2018-10-19T13:28:45.580Z,21.90
2018-10-19T13:31:13.886Z,21.90
2018-10-19T13:33:42.344Z,21.90
2018-10-19T13:36:10.878Z,21.80
2018-10-19T13:38:39.006Z,21.60
2018-10-19T13:41:07.363Z,21.50
2018-10-19T13:43:35.622Z,21.60
2018-10-19T13:46:04.229Z,21.40
2018-10-19T13:48:32.541Z,21.40
2018-10-19T13:51:00.980Z,21.60
2018-10-19T13:53:29.239Z,21.80
2018-10-19T13:55:57.700Z,21.90
2018-10-19T13:58:26.080Z,21.90
2018-10-19T14:00:54.342Z,21.90
2018-10-19T14:03:22.634Z,21.70
2018-10-19T14:05:50.926Z,21.40
2018-10-19T14:08:19.240Z,21.20
2018-10-19T14:10:47.593Z,21.10
2018-10-19T14:13:15.900Z,21.00
2018-10-19T14:15:44.245Z,20.90
2018-10-19T14:18:12.539Z,20.80
2018-10-19T14:20:40.891Z,20.60
2018-10-19T14:23:09.276Z,20.80
2018-10-19T14:25:37.453Z,21.00
2018-10-19T14:28:06.069Z,21.20
2018-10-19T14:30:34.416Z,21.40
2018-10-19T14:33:02.818Z,21.60
2018-10-19T14:35:31.060Z,21.70
2018-10-19T14:37:59.375Z,21.60
2018-10-19T14:40:27.721Z,21.70
2018-10-19T14:42:56.064Z,21.80
2018-10-19T14:45:24.374Z,21.70
2018-10-19T14:47:52.710Z,21.60
2018-10-19T14:50:20.967Z,21.60
2018-10-19T14:52:49.318Z,21.60
2018-10-19T14:55:19.413Z,21.70
2018-10-19T14:57:47.703Z,21.70
2018-10-19T15:00:17.687Z,21.60
2018-10-19T15:02:49.296Z,21.40
2018-10-19T15:05:18.693Z,20.90
2018-10-19T15:07:47.057Z,20.80
2018-10-19T15:10:17.210Z,20.70
2018-10-19T15:12:45.552Z,20.50
2018-10-19T15:15:15.769Z,20.50
2018-10-19T15:17:44.131Z,20.20
2018-10-19T15:20:12.911Z,20.20
2018-10-19T15:22:41.238Z,20.10
2018-10-19T15:25:09.998Z,20.10
2018-10-19T15:27:45.717Z,20.10
2018-10-19T15:30:15.779Z,20.00
2018-10-19T15:32:44.126Z,20.00
2018-10-19T15:35:13.494Z,19.90
2018-10-19T15:37:42.028Z,20.00
2018-10-19T15:40:11.144Z,20.00
2018-10-19T15:42:39.910Z,20.00
2018-10-19T15:45:10.059Z,19.80
2018-10-19T15:47:38.342Z,19.80
2018-10-19T15:50:07.566Z,19.70
2018-10-19T15:52:36.039Z,19.60
2018-10-19T15:55:04.662Z,19.50
2018-10-19T15:57:32.931Z,19.30
2018-10-19T16:00:01.301Z,19.20
2018-10-19T16:02:29.582Z,19.20
2018-10-19T16:04:57.922Z,19.00
2018-10-19T16:07:26.253Z,18.90
2018-10-19T16:09:54.601Z,18.80
2018-10-19T16:12:22.895Z,18.70
2018-10-19T16:14:51.336Z,18.60
2018-10-19T16:17:19.725Z,18.50
2018-10-19T16:19:51.592Z,18.30
2018-10-19T16:22:19.928Z,18.20
2018-10-19T16:24:50.292Z,17.90
2018-10-19T16:27:22.238Z,17.80
2018-10-19T16:29:50.534Z,17.60
2018-10-19T16:32:18.815Z,17.40
2018-10-19T16:34:47.160Z,17.20
2018-10-19T16:37:15.467Z,17.10
2018-10-19T16:39:43.849Z,17.00
2018-10-19T16:42:16.136Z,17.00
2018-10-19T16:44:44.459Z,16.90
2018-10-19T16:47:12.788Z,16.80
2018-10-19T16:49:42.327Z,16.70
2018-10-19T16:52:13.896Z,16.60
2018-10-19T16:54:45.800Z,16.40
2018-10-19T16:57:14.152Z,16.30
2018-10-19T16:59:44.492Z,16.10
2018-10-19T17:02:12.830Z,16.00
2018-10-19T17:04:41.352Z,15.90
2018-10-19T17:07:09.631Z,15.80
2018-10-19T17:09:41.399Z,15.70
2018-10-19T17:12:10.090Z,15.60
2018-10-19T17:14:38.300Z,15.40
2018-10-19T17:17:06.563Z,15.30
2018-10-19T17:19:34.891Z,15.30
2018-10-19T17:22:03.314Z,15.30
2018-10-19T17:24:31.608Z,15.20
2018-10-19T17:27:00.083Z,15.10
2018-10-19T17:29:28.375Z,15.00
2018-10-19T17:31:56.648Z,14.90
2018-10-19T17:34:24.946Z,14.80
2018-10-19T17:36:53.282Z,14.70
2018-10-19T17:39:21.665Z,14.60
2018-10-19T17:41:50.002Z,14.50
2018-10-19T17:44:18.397Z,14.50
2018-10-19T17:46:46.671Z,14.40
2018-10-19T17:49:15.113Z,14.30
2018-10-19T17:51:43.343Z,14.30
2018-10-19T17:54:13.774Z,14.20
2018-10-19T17:56:42.022Z,14.10
2018-10-19T17:59:13.852Z,14.00
2018-10-19T18:01:42.116Z,13.90
2018-10-19T18:04:10.413Z,13.80
2018-10-19T18:06:38.746Z,13.70
2018-10-19T18:09:09.120Z,13.60
2018-10-19T18:11:37.560Z,13.50
2018-10-19T18:14:05.936Z,13.50
2018-10-19T18:16:34.374Z,13.40
2018-10-19T18:19:02.693Z,13.30
2018-10-19T18:21:31.149Z,13.20
2018-10-19T18:23:59.353Z,13.20
2018-10-19T18:26:27.702Z,13.20
2018-10-19T18:28:56.050Z,13.30
2018-10-19T18:31:24.394Z,13.20
2018-10-19T18:33:52.728Z,13.20
2018-10-19T18:36:21.025Z,13.20
2018-10-19T18:38:49.304Z,13.10
2018-10-19T18:41:17.632Z,13.10
2018-10-19T18:43:45.953Z,13.10
2018-10-19T18:46:14.259Z,13.10
2018-10-19T18:48:42.502Z,13.10
2018-10-19T18:51:10.845Z,13.10
2018-10-19T18:53:39.162Z,13.10
2018-10-19T18:56:08.599Z,13.10
2018-10-19T18:58:36.924Z,13.00
2018-10-19T19:01:05.274Z,13.00
2018-10-19T19:03:33.631Z,13.00
2018-10-19T19:06:01.948Z,12.80
2018-10-19T19:08:30.238Z,12.70
2018-10-19T19:10:58.596Z,12.50
2018-10-19T19:13:29.252Z,12.40
2018-10-19T19:15:57.962Z,12.40
2018-10-19T19:18:26.308Z,12.50
2018-10-19T19:20:54.679Z,12.50
2018-10-19T19:23:23.022Z,12.50
2018-10-19T19:25:56.789Z,12.50
2018-10-19T19:28:25.081Z,12.50
2018-10-19T19:30:53.411Z,12.50
2018-10-19T19:33:27.021Z,12.50
2018-10-19T19:35:55.298Z,12.40
2018-10-19T19:38:23.662Z,12.40
2018-10-19T19:40:57.393Z,12.20
2018-10-19T19:43:25.673Z,12.20
2018-10-19T19:45:53.972Z,12.10
2018-10-19T19:48:27.616Z,12.10
2018-10-19T19:50:55.936Z,12.10
2018-10-19T19:53:24.210Z,12.10
2018-10-19T19:55:52.500Z,12.10
2018-10-19T19:58:20.777Z,12.00
2018-10-19T20:00:49.110Z,11.90
2018-10-19T20:03:17.473Z,11.90
2018-10-19T20:05:45.886Z,11.80
2018-10-19T20:08:14.265Z,11.80
2018-10-19T20:10:42.544Z,11.70
2018-10-19T20:13:10.910Z,11.80
2018-10-19T20:15:42.815Z,11.80
2018-10-19T20:18:11.188Z,11.70
2018-10-19T20:20:39.499Z,11.70
2018-10-19T20:23:07.906Z,11.70
2018-10-19T20:25:36.269Z,11.80
2018-10-19T20:28:04.895Z,11.70
2018-10-19T20:30:33.213Z,11.70
2018-10-19T20:33:04.961Z,11.60
2018-10-19T20:35:33.252Z,11.60
2018-10-19T20:38:01.679Z,11.60
2018-10-19T20:40:29.870Z,11.50
2018-10-19T20:42:58.205Z,11.50
2018-10-19T20:45:27.575Z,11.50
2018-10-19T20:47:55.932Z,11.50
2018-10-19T20:50:24.226Z,11.40
2018-10-19T20:52:52.578Z,11.40
2018-10-19T20:55:20.846Z,11.30
2018-10-19T20:57:49.184Z,11.30
2018-10-19T21:00:18.554Z,11.20
2018-10-19T21:02:46.873Z,11.30
2018-10-19T21:05:15.230Z,11.20
2018-10-19T21:07:43.555Z,11.20
2018-10-19T21:10:13.220Z,11.10
2018-10-19T21:12:41.548Z,11.00
2018-10-19T21:15:11.496Z,11.00
2018-10-19T21:17:40.203Z,10.90
2018-10-19T21:20:09.481Z,10.80
2018-10-19T21:22:38.100Z,10.60
2018-10-19T21:25:07.587Z,10.60
2018-10-19T21:27:36.186Z,10.50
2018-10-19T21:30:04.946Z,10.60
2018-10-19T21:32:33.203Z,10.60
2018-10-19T21:35:01.524Z,10.60
2018-10-19T21:37:29.808Z,10.60
2018-10-19T21:39:58.147Z,10.60
2018-10-19T21:42:26.415Z,10.60
2018-10-19T21:44:54.882Z,10.50
2018-10-19T21:47:23.125Z,10.50
2018-10-19T21:49:51.429Z,10.50
2018-10-19T21:52:19.974Z,10.50
2018-10-19T21:54:48.306Z,10.50
2018-10-19T21:57:16.654Z,10.50
2018-10-19T21:59:44.973Z,10.40
2018-10-19T22:02:13.364Z,10.30
2018-10-19T22:04:41.625Z,10.40
2018-10-19T22:07:09.963Z,10.40
2018-10-19T22:09:39.299Z,10.40
2018-10-19T22:12:07.597Z,10.40
2018-10-19T22:14:35.886Z,10.40
2018-10-19T22:17:04.533Z,10.40
2018-10-19T22:19:32.798Z,10.40
2018-10-19T22:22:01.093Z,10.30
2018-10-19T22:24:29.394Z,10.30
2018-10-19T22:26:57.677Z,10.30
2018-10-19T22:29:25.978Z,10.30
2018-10-19T22:31:54.282Z,10.40
2018-10-19T22:34:22.682Z,10.30
2018-10-19T22:36:51.025Z,10.30
2018-10-19T22:39:19.358Z,10.30
2018-10-19T22:41:47.624Z,10.30
2018-10-19T22:44:15.955Z,10.20
2018-10-19T22:46:44.260Z,10.20
2018-10-19T22:49:12.588Z,10.20
2018-10-19T22:51:40.890Z,10.10
2018-10-19T22:54:09.192Z,10.10
2018-10-19T22:56:37.539Z,10.10
2018-10-19T22:59:06.018Z,10.00
2018-10-19T23:01:34.330Z,10.00
2018-10-19T23:04:02.662Z,10.00
2018-10-19T23:06:30.950Z,10.00
2018-10-19T23:08:59.218Z,10.00
2018-10-19T23:11:27.513Z,10.00
2018-10-19T23:13:55.861Z,10.00
2018-10-19T23:16:24.164Z,10.00
2018-10-19T23:18:52.515Z,9.90
2018-10-19T23:21:20.869Z,9.90
2018-10-19T23:23:49.178Z,9.90
2018-10-19T23:26:17.533Z,9.80
2018-10-19T23:28:45.841Z,9.70
2018-10-19T23:31:14.272Z,9.70
2018-10-19T23:33:42.520Z,9.70
2018-10-19T23:36:10.795Z,9.70
2018-10-19T23:38:39.114Z,9.70
2018-10-19T23:41:07.564Z,9.60
2018-10-19T23:43:35.824Z,9.60
2018-10-19T23:46:04.085Z,9.60
2018-10-19T23:48:32.420Z,9.50
2018-10-19T23:51:01.078Z,9.50
2018-10-19T23:53:29.384Z,9.50
2018-10-19T23:55:57.710Z,9.40
2018-10-19T23:58:25.947Z,9.30
